Аэропорт: Рощино. Тюмень

ICAO: USTR

METAR:
2024-04-22 23:00:00
USTR 222300Z 05005MPS CAVOK 01/M07 Q1031 R03/090065 R30/090065 NOSIG
TAF:
2024-04-22 22:36:00
TAF USTR 222236Z 2300/2324 06005G12MPS 9999 BKN020 
  TEMPO 2318/2324 -SHSN SCT016CB